Time;durP1;ratioP1;P1;durP2;ratioP2;P2;SDS_P1;SDS_P2;PMS_P1;PMS_P2;Temp;Humidity;BMP_temperature;BMP_pressure;BME280_temperature;BME280_humidity;BME280_pressure;Samples;Min_cycle;Max_cycle;Signal;HPM_P1;HPM_P2
2023/07/29 00:01:04;;;;;;;9.68;6.45;;;;;;;16.64;77.72;97486.47;10288490;28;20080;-49
2023/07/29 00:06:03;;;;;;;10.88;6.72;;;;;;;16.32;78.23;97438.50;10290715;28;20034;-50
2023/07/29 00:11:02;;;;;;;;;;;;;;;16.58;78.86;97481.41;10290357;28;20077;-51
2023/07/29 00:16:01;;;;;;;7.43;6.50;;;;;;;16.61;78.28;97476.09;10290835;28;20031;-49
2023/07/29 00:21:00;;;;;;;9.63;6.60;;;;;;;16.57;79.47;97484.94;10289819;28;20038;-51
2023/07/29 00:25:59;;;;;;;;;;;;;;;16.48;79.06;97486.06;10290372;28;20026;-51
2023/07/29 00:30:58;;;;;;;7.63;6.03;;;;;;;16.38;79.15;97482.84;10289327;28;20457;-50
2023/07/29 00:35:57;;;;;;;;;;;;;;;16.40;79.09;97483.66;10289927;28;20045;-51
2023/07/29 00:40:57;;;;;;;8.83;6.73;;;;;;;16.37;79.20;97488.13;10290386;28;19909;-52
2023/07/29 00:45:57;;;;;;;10.63;6.78;;;;;;;16.19;79.52;97473.81;10289024;28;20164;-51
2023/07/29 00:50:56;;;;;;;8.55;6.53;;;;;;;16.24;79.95;97472.75;10288839;28;20125;-50
2023/07/29 00:55:56;;;;;;;8.45;7.28;;;;;;;16.18;80.06;97472.91;10288276;28;20095;-52
2023/07/29 01:00:55;;;;;;;8.63;7.57;;;;;;;15.99;80.20;97441.16;10287704;28;20053;-51
2023/07/29 01:05:59;;;;;;;9.02;7.45;;;;;;;16.18;80.59;97477.31;10288829;28;20157;-52
2023/07/29 01:11:23;;;;;;;8.65;7.13;;;;;;;16.12;80.98;97482.72;10288504;28;20141;-50
2023/07/29 01:16:46;;;;;;;10.13;8.10;;;;;;;16.09;80.68;97478.41;10288616;28;20084;-51
2023/07/29 01:21:45;;;;;;;9.93;7.90;;;;;;;16.01;81.54;97481.25;10288010;28;20124;-49
2023/07/29 01:26:44;;;;;;;10.30;8.45;;;;;;;15.95;81.65;97468.34;10287634;28;20026;-48
2023/07/29 01:31:44;;;;;;;;;;;;;;;15.91;81.87;97469.31;10287733;28;20514;-50
2023/07/29 01:36:45;;;;;;;;;;;;;;;15.87;81.69;97481.59;10287601;28;21089;-51
2023/07/29 01:41:45;;;;;;;9.85;7.82;;;;;;;15.88;81.64;97465.03;10285930;28;19959;-50
2023/07/29 01:46:44;;;;;;;9.63;7.45;;;;;;;15.88;81.76;97474.66;10286619;28;20464;-49
2023/07/29 01:51:43;;;;;;;10.55;7.55;;;;;;;15.87;82.20;97476.38;10286557;28;20084;-52
2023/07/29 01:56:42;;;;;;;9.95;6.93;;;;;;;15.84;82.32;97478.22;10287439;28;20062;-51
2023/07/29 02:01:41;;;;;;;;;;;;;;;15.70;82.95;97478.56;10327534;28;20052;-51
2023/07/29 02:06:40;;;;;;;9.10;7.50;;;;;;;15.67;82.94;97484.72;10326661;28;19944;-48
2023/07/29 02:11:39;;;;;;;9.00;6.80;;;;;;;15.63;83.02;97479.63;10326090;28;20065;-48
2023/07/29 02:16:38;;;;;;;;;;;;;;;15.59;82.84;97478.81;10326379;28;20038;-48
2023/07/29 02:21:37;;;;;;;9.38;7.45;;;;;;;15.53;82.31;97471.16;10295826;28;19952;-51
2023/07/29 02:26:36;;;;;;;;;;;;;;;15.41;82.73;97479.28;10287242;28;20120;-49
2023/07/29 02:31:37;;;;;;;7.85;6.95;;;;;;;15.38;82.31;97489.81;10285205;28;19917;-49
2023/07/29 02:36:36;;;;;;;9.15;7.07;;;;;;;15.29;82.83;97475.22;10284653;28;20124;-49
2023/07/29 02:41:35;;;;;;;;;;;;;;;15.20;83.65;97497.22;10285366;28;20061;-51
2023/07/29 02:46:34;;;;;;;12.88;7.40;;;;;;;15.13;84.04;97490.44;10284950;28;20015;-49
2023/07/29 02:51:32;;;;;;;;;;;;;;;15.06;83.87;97494.09;10284648;28;20034;-49
2023/07/29 02:56:31;;;;;;;11.00;7.97;;;;;;;14.92;84.26;97480.44;10284934;28;20012;-48
2023/07/29 03:01:31;;;;;;;9.27;7.75;;;;;;;14.99;84.09;97501.19;10283588;28;20474;-50
2023/07/29 03:06:29;;;;;;;9.95;7.65;;;;;;;14.93;84.55;97497.84;10283648;28;20065;-51
2023/07/29 03:11:28;;;;;;;;;;;;;;;14.95;84.82;97506.53;10283937;28;20126;-51
2023/07/29 03:16:27;;;;;;;10.27;7.82;;;;;;;14.95;84.94;97511.75;10284354;28;19917;-49
2023/07/29 03:21:26;;;;;;;;;;;;;;;14.93;84.46;97503.09;10283524;28;20034;-51
2023/07/29 03:26:25;;;;;;;14.35;7.75;;;;;;;14.97;84.19;97509.97;10283320;28;19949;-50
2023/07/29 03:31:24;;;;;;;;;;;;;;;14.89;85.00;97512.72;10283745;28;20133;-51
2023/07/29 03:36:25;;;;;;;10.80;7.47;;;;;;;14.97;84.54;97517.81;10282918;28;19953;-50
2023/07/29 03:41:24;;;;;;;14.18;7.53;;;;;;;14.96;84.35;97524.75;10283393;28;20142;-50
2023/07/29 03:46:23;;;;;;;;;;;;;;;14.90;84.23;97524.91;10284079;28;20041;-51
2023/07/29 03:51:22;;;;;;;12.52;8.00;;;;;;;14.83;84.30;97532.03;10283952;28;19924;-48
2023/07/29 03:56:21;;;;;;;10.43;7.68;;;;;;;14.82;84.71;97530.28;10283577;28;20426;-52
2023/07/29 04:01:20;;;;;;;;;;;;;;;14.92;84.45;97541.41;10283175;28;20096;-51
2023/07/29 04:06:19;;;;;;;9.73;7.23;;;;;;;15.04;84.15;97538.53;10282556;28;19913;-51
2023/07/29 04:11:18;;;;;;;;;;;;;;;15.11;84.08;97531.41;10283360;28;20034;-49
2023/07/29 04:16:17;;;;;;;15.82;13.93;;;;;;;15.20;84.08;97531.22;10283296;28;19929;-50
2023/07/29 04:21:16;;;;;;;;;;;;;;;15.12;84.78;97525.28;10283550;28;20057;-50
2023/07/29 04:26:14;;;;;;;32.80;27.23;;;;;;;15.28;84.27;97535.41;10283660;28;20036;-50
2023/07/29 04:31:13;;;;;;;;;;;;;;;15.33;84.73;97538.75;10272488;28;20046;-50
2023/07/29 04:36:12;;;;;;;14.55;11.90;;;;;;;15.44;84.25;97534.13;10258642;28;19909;-50
2023/07/29 04:41:11;;;;;;;;;;;;;;;15.34;84.53;97540.47;10261954;28;20037;-49
2023/07/29 04:46:10;;;;;;;11.27;8.93;;;;;;;15.49;84.09;97539.25;10262814;28;19914;-50
2023/07/29 04:51:09;;;;;;;13.55;10.30;;;;;;;15.50;83.37;97504.34;10260066;28;20109;-50
2023/07/29 04:56:08;;;;;;;;;;;;;;;15.87;82.99;97543.56;10261374;28;20044;-50
2023/07/29 05:01:07;;;;;;;16.70;11.53;;;;;;;16.08;82.54;97539.53;10254968;28;19969;-50
2023/07/29 05:06:06;;;;;;;20.65;14.35;;;;;;;16.29;82.43;97536.31;10259913;28;20072;-49
2023/07/29 05:11:04;;;;;;;17.02;13.98;;;;;;;16.47;81.97;97534.97;10257583;28;20030;-50
2023/07/29 05:16:03;;;;;;;;;;;;;;;16.76;80.73;97546.34;10248560;28;20145;-52
2023/07/29 05:21:02;;;;;;;16.67;12.00;;;;;;;16.98;78.96;97553.63;10260136;28;19928;-49
2023/07/29 05:26:01;;;;;;;15.05;12.30;;;;;;;17.12;78.56;97539.22;10258170;28;20121;-51
2023/07/29 05:31:02;;;;;;;20.48;11.80;;;;;;;17.29;77.95;97533.44;10258388;28;20046;-51
2023/07/29 05:36:00;;;;;;;12.40;9.35;;;;;;;17.47;77.25;97528.50;10254926;28;20128;-49
2023/07/29 05:41:00;;;;;;;10.00;7.38;;;;;;;17.63;76.17;97534.94;10249156;28;20033;-52
2023/07/29 05:45:59;;;;;;;10.48;7.93;;;;;;;17.67;75.34;97515.59;10258010;28;20132;-49
2023/07/29 05:50:58;;;;;;;10.23;7.40;;;;;;;17.95;75.32;97528.66;10253900;28;20046;-51
2023/07/29 05:55:57;;;;;;;11.15;6.93;;;;;;;18.31;74.85;97538.78;10258871;28;20116;-50
2023/07/29 06:00:57;;;;;;;9.20;7.55;;;;;;;18.53;72.70;97525.75;10259225;28;20034;-52
2023/07/29 06:05:56;;;;;;;7.93;6.40;;;;;;;18.73;71.92;97524.19;10259395;28;20054;-49
2023/07/29 06:10:55;;;;;;;8.07;6.35;;;;;;;18.87;70.19;97519.25;10255506;28;20042;-49
2023/07/29 06:15:54;;;;;;;8.15;6.00;;;;;;;19.01;69.40;97518.72;10259035;28;20114;-51
2023/07/29 06:20:53;;;;;;;7.55;6.32;;;;;;;19.32;68.48;97509.63;10257846;28;20034;-51
2023/07/29 06:25:51;;;;;;;9.23;5.68;;;;;;;19.57;67.51;97504.25;10259251;28;20034;-49
2023/07/29 06:30:50;;;;;;;7.78;6.00;;;;;;;19.82;64.74;97504.94;10258014;28;20081;-51
2023/07/29 06:35:49;;;;;;;7.32;5.97;;;;;;;20.09;63.50;97512.59;10256830;28;20042;-50
2023/07/29 06:40:49;;;;;;;7.40;5.30;;;;;;;20.30;63.01;97508.16;10255804;28;20172;-51
2023/07/29 06:45:48;;;;;;;7.18;5.35;;;;;;;20.18;63.41;97475.31;10258782;28;20113;-50
2023/07/29 06:50:47;;;;;;;7.78;5.30;;;;;;;20.67;62.41;97504.75;10258643;28;20118;-49
2023/07/29 06:55:46;;;;;;;6.13;4.75;;;;;;;20.90;60.57;97503.69;10257182;28;20355;-48
2023/07/29 07:00:45;;;;;;;10.15;4.88;;;;;;;21.17;59.42;97499.81;10257988;28;20070;-51
2023/07/29 07:05:44;;;;;;;6.38;4.57;;;;;;;21.44;58.43;97497.69;10257729;28;20120;-51
2023/07/29 07:10:43;;;;;;;6.13;3.90;;;;;;;21.71;57.47;97479.59;10254262;28;20411;-48
2023/07/29 07:15:42;;;;;;;5.55;4.30;;;;;;;21.99;55.18;97481.72;10256490;28;20112;-49
2023/07/29 07:20:40;;;;;;;8.85;4.40;;;;;;;22.12;53.46;97476.66;10255805;28;20116;-50
2023/07/29 07:25:39;;;;;;;4.93;4.03;;;;;;;22.27;52.76;97470.59;10257768;28;20394;-51
2023/07/29 07:30:41;;;;;;;8.57;4.30;;;;;;;22.50;52.23;97471.97;10256633;28;20057;-51
2023/07/29 07:35:42;;;;;;;5.10;3.95;;;;;;;22.63;51.21;97487.22;10257754;28;20061;-51
2023/07/29 07:40:41;;;;;;;4.88;4.32;;;;;;;22.97;50.85;97475.66;10256856;28;20061;-53
2023/07/29 07:45:40;;;;;;;8.68;3.95;;;;;;;23.23;49.08;97477.72;10256369;28;20030;-49
2023/07/29 07:50:39;;;;;;;6.63;3.95;;;;;;;23.46;48.24;97490.56;10254627;28;20122;-51
2023/07/29 07:55:38;;;;;;;9.57;4.30;;;;;;;23.75;46.99;97495.06;10256528;28;20140;-50
2023/07/29 08:00:37;;;;;;;7.18;4.15;;;;;;;24.13;47.30;97493.75;10254773;28;20117;-51
2023/07/29 08:05:36;;;;;;;6.03;3.88;;;;;;;24.44;46.81;97488.28;10253864;28;20045;-51
2023/07/29 08:10:35;;;;;;;5.93;3.47;;;;;;;24.75;43.89;97481.06;10261792;28;20076;-49
2023/07/29 08:15:34;;;;;;;7.40;3.97;;;;;;;24.96;44.29;97480.72;10262114;28;20129;-50
2023/07/29 08:20:33;;;;;;;7.25;4.50;;;;;;;25.25;44.64;97471.72;10261727;28;20026;-51
2023/07/29 08:25:32;;;;;;;3.97;3.47;;;;;;;25.49;44.21;97473.72;10262447;28;20078;-50
2023/07/29 08:30:31;;;;;;;5.60;3.10;;;;;;;25.79;41.51;97470.00;10260910;28;20129;-50
2023/07/29 08:35:30;;;;;;;4.78;3.50;;;;;;;26.10;41.13;97460.78;10261642;28;20184;-49
2023/07/29 08:40:30;;;;;;;5.80;3.20;;;;;;;26.24;40.11;97446.56;10261374;28;20040;-48
2023/07/29 08:45:34;;;;;;;4.43;3.85;;;;;;;26.44;40.51;97453.16;10261216;28;20075;-48
2023/07/29 08:50:35;;;;;;;4.93;3.80;;;;;;;26.19;39.53;97371.53;10262497;28;20144;-51
2023/07/29 08:55:34;;;;;;;5.85;3.40;;;;;;;27.00;37.80;97445.59;10260743;28;20113;-51
2023/07/29 09:00:34;;;;;;;4.55;3.25;;;;;;;27.10;36.56;97443.16;10260985;28;20054;-48
2023/07/29 09:05:34;;;;;;;3.40;3.10;;;;;;;27.31;36.80;97440.72;10262200;28;20133;-51
2023/07/29 09:10:39;;;;;;;4.28;3.00;;;;;;;27.32;33.44;97440.59;10260369;28;20142;-50
2023/07/29 09:15:39;;;;;;;6.40;3.65;;;;;;;27.34;34.03;97398.69;10260183;28;20077;-50
2023/07/29 09:20:38;;;;;;;4.20;3.45;;;;;;;27.61;33.36;97425.13;10260837;28;20482;-50
2023/07/29 09:25:38;;;;;;;3.60;2.80;;;;;;;27.77;32.51;97408.78;10261401;28;20097;-50
2023/07/29 09:30:39;;;;;;;4.07;2.30;;;;;;;28.00;33.14;97409.69;10260269;28;20556;-49
2023/07/29 09:35:38;;;;;;;3.13;2.80;;;;;;;28.16;32.24;97412.03;10261857;28;20076;-51
2023/07/29 09:40:38;;;;;;;3.25;1.80;;;;;;;28.37;30.77;97406.84;10260383;28;20108;-52
2023/07/29 09:45:37;;;;;;;3.17;2.22;;;;;;;28.38;31.20;97402.34;10260159;28;20129;-51
2023/07/29 09:50:36;;;;;;;3.42;2.40;;;;;;;28.24;30.96;97371.41;10260798;28;20081;-51
2023/07/29 09:55:35;;;;;;;2.50;2.20;;;;;;;28.59;30.83;97397.13;10259168;28;20074;-49
2023/07/29 10:00:35;;;;;;;3.80;2.70;;;;;;;28.60;30.27;97389.00;10257681;28;20105;-51
2023/07/29 10:05:35;;;;;;;3.20;2.40;;;;;;;28.64;30.82;97374.44;10258257;28;20129;-49
2023/07/29 10:10:34;;;;;;;2.40;2.20;;;;;;;28.83;29.86;97391.69;10257114;28;20154;-51
2023/07/29 10:15:33;;;;;;;2.67;2.20;;;;;;;28.83;30.48;97383.66;10258878;28;20440;-51
2023/07/29 10:20:34;;;;;;;4.10;2.22;;;;;;;29.03;29.98;97393.53;10255903;28;20124;-52
2023/07/29 10:25:42;;;;;;;1.70;1.60;;;;;;;29.15;28.04;97378.31;10258662;28;20468;-51
2023/07/29 10:30:42;;;;;;;4.18;2.20;;;;;;;29.29;30.55;97371.88;10256131;28;20512;-50
2023/07/29 10:35:42;;;;;;;3.05;2.70;;;;;;;29.31;31.63;97348.53;10257013;28;20070;-50
2023/07/29 10:40:51;;;;;;;2.40;2.20;;;;;;;29.71;30.77;97359.38;10258070;28;20146;-50
2023/07/29 10:45:50;;;;;;;3.20;2.25;;;;;;;29.84;30.17;97353.84;10256510;28;20077;-51
2023/07/29 10:50:49;;;;;;;3.05;2.75;;;;;;;30.06;31.19;97350.16;10257173;28;20117;-52
2023/07/29 10:55:51;;;;;;;2.20;2.00;;;;;;;30.06;30.84;97343.97;10258089;28;20037;-51
2023/07/29 11:00:50;;;;;;;2.65;2.40;;;;;;;29.94;31.37;97350.38;10257959;28;20472;-50
2023/07/29 11:05:51;;;;;;;2.22;1.92;;;;;;;30.20;29.79;97337.41;10256383;28;20571;-50
2023/07/29 11:11:07;;;;;;;3.75;1.85;;;;;;;30.50;31.08;97342.75;10255910;28;20138;-52
2023/07/29 11:16:06;;;;;;;2.83;2.10;;;;;;;30.46;28.62;97333.28;10256935;28;20145;-54
2023/07/29 11:21:06;;;;;;;2.08;1.70;;;;;;;30.33;29.17;97336.19;10255996;28;20058;-51
2023/07/29 11:26:05;;;;;;;3.90;1.90;;;;;;;30.15;29.82;97304.84;10258122;28;20571;-51
2023/07/29 11:31:04;;;;;;;2.40;2.10;;;;;;;30.57;29.14;97335.03;10255995;28;20586;-51
2023/07/29 11:36:03;;;;;;;3.30;1.85;;;;;;;30.67;29.22;97338.56;10254583;28;20120;-52
2023/07/29 11:41:03;;;;;;;2.40;2.00;;;;;;;30.61;28.79;97328.41;10257797;28;20065;-50
2023/07/29 11:46:03;;;;;;;1.92;1.80;;;;;;;30.67;28.65;97301.06;10265486;28;20129;-52
2023/07/29 11:51:03;;;;;;;3.08;2.03;;;;;;;31.01;28.49;97315.94;10263450;28;20129;-51
2023/07/29 11:56:03;;;;;;;2.70;2.00;;;;;;;31.50;28.15;97314.97;10262751;28;20080;-52
2023/07/29 12:01:03;;;;;;;2.63;1.95;;;;;;;31.53;27.51;97303.94;10262325;28;20080;-50
2023/07/29 12:06:02;;;;;;;2.45;1.55;;;;;;;31.87;27.41;97300.72;10264919;28;20133;-51
2023/07/29 12:11:01;;;;;;;2.47;2.00;;;;;;;31.99;28.50;97290.66;10264387;28;20122;-51
2023/07/29 12:16:04;;;;;;;2.10;1.90;;;;;;;31.91;27.38;97291.41;10263034;28;20066;-51
2023/07/29 12:21:03;;;;;;;2.67;1.90;;;;;;;32.44;27.59;97292.59;10262648;28;20070;-52
2023/07/29 12:26:02;;;;;;;2.08;1.88;;;;;;;32.84;26.87;97281.47;10264745;28;20073;-50
2023/07/29 12:31:01;;;;;;;2.35;2.05;;;;;;;33.10;26.28;97282.56;10260402;28;20049;-52
2023/07/29 12:36:00;;;;;;;2.13;1.90;;;;;;;33.38;26.10;97281.47;10261785;28;20038;-50
2023/07/29 12:40:59;;;;;;;1.73;1.55;;;;;;;33.43;25.26;97279.13;10263461;28;20093;-51
2023/07/29 12:45:58;;;;;;;1.92;1.80;;;;;;;33.11;26.10;97276.19;10261247;28;20034;-52
2023/07/29 12:50:57;;;;;;;2.78;1.95;;;;;;;33.39;26.14;97279.59;10262605;28;20145;-52
2023/07/29 12:55:56;;;;;;;2.83;1.85;;;;;;;33.45;26.91;97282.50;10261798;28;20061;-52
2023/07/29 13:00:55;;;;;;;4.18;2.10;;;;;;;32.99;27.85;97286.31;10262744;28;20061;-52
2023/07/29 13:05:54;;;;;;;2.63;2.20;;;;;;;33.22;28.01;97276.78;10260340;28;20137;-50
2023/07/29 13:10:53;;;;;;;3.13;2.20;;;;;;;33.01;27.07;97268.19;10259725;28;20041;-52
2023/07/29 13:15:52;;;;;;;2.70;1.80;;;;;;;32.82;27.46;97270.03;10261366;28;20159;-53
2023/07/29 13:20:51;;;;;;;3.70;2.40;;;;;;;32.50;27.56;97288.47;10261032;28;20136;-52
2023/07/29 13:25:50;;;;;;;2.28;2.08;;;;;;;32.96;27.08;97282.09;10263072;28;20045;-52
2023/07/29 13:30:49;;;;;;;4.40;1.92;;;;;;;32.94;26.40;97267.13;10260902;28;20129;-52
2023/07/29 13:35:48;;;;;;;2.63;2.22;;;;;;;32.85;25.96;97285.84;10259473;28;20037;-52
2023/07/29 13:40:50;;;;;;;3.78;1.90;;;;;;;32.04;25.26;97284.84;10258197;28;20113;-53
2023/07/29 13:45:50;;;;;;;2.17;1.98;;;;;;;31.78;27.05;97286.38;10260726;28;20077;-51
2023/07/29 13:50:49;;;;;;;1.73;1.63;;;;;;;31.84;27.36;97274.19;10259087;28;20089;-53
2023/07/29 13:55:48;;;;;;;5.10;1.95;;;;;;;32.15;28.08;97250.63;10258147;28;20114;-50
2023/07/29 14:00:47;;;;;;;3.30;1.60;;;;;;;32.36;27.97;97284.44;10260852;28;20073;-53
2023/07/29 14:05:45;;;;;;;10.30;2.30;;;;;;;32.29;28.92;97283.34;10257830;28;20221;-51
2023/07/29 14:10:44;;;;;;;2.10;2.00;;;;;;;32.17;28.79;97285.41;10257316;28;20120;-51
2023/07/29 14:15:43;;;;;;;2.30;2.10;;;;;;;32.26;29.38;97273.75;10258376;28;20034;-51
2023/07/29 14:20:42;;;;;;;3.65;2.05;;;;;;;32.34;29.91;97249.69;10256926;28;20431;-52
2023/07/29 14:25:41;;;;;;;3.75;1.90;;;;;;;32.10;29.29;97268.19;10247389;28;20022;-52
2023/07/29 14:30:41;;;;;;;4.65;2.78;;;;;;;31.75;29.62;97262.50;10250939;28;20129;-52
2023/07/29 14:35:40;;;;;;;2.25;1.80;;;;;;;31.26;29.79;97271.63;10251562;28;20073;-50
2023/07/29 14:40:39;;;;;;;2.45;1.95;;;;;;;31.21;29.74;97274.75;10258916;28;20089;-52
2023/07/29 14:45:37;;;;;;;2.35;1.90;;;;;;;31.31;29.04;97278.28;10261849;28;20034;-53
2023/07/29 14:50:36;;;;;;;4.70;2.10;;;;;;;31.38;28.81;97271.34;10260695;28;20243;-50
2023/07/29 14:55:37;;;;;;;2.83;1.80;;;;;;;31.34;29.49;97267.25;10261887;28;20143;-52
2023/07/29 15:00:36;;;;;;;2.95;1.90;;;;;;;31.39;29.60;97270.34;10262517;28;20065;-52
2023/07/29 15:05:34;;;;;;;2.22;1.52;;;;;;;31.01;29.68;97279.28;10258280;28;20117;-52
2023/07/29 15:10:33;;;;;;;1.85;1.73;;;;;;;30.67;29.60;97260.88;10258798;28;20045;-51
2023/07/29 15:15:32;;;;;;;3.78;1.58;;;;;;;30.75;29.52;97263.72;10261328;28;20068;-51
2023/07/29 15:20:31;;;;;;;2.28;1.60;;;;;;;30.79;28.17;97260.75;10260487;28;20061;-51
2023/07/29 15:25:30;;;;;;;2.20;1.55;;;;;;;30.79;28.62;97223.25;10256738;28;20468;-51
2023/07/29 15:30:29;;;;;;;1.60;1.48;;;;;;;30.74;28.28;97256.66;10254930;28;20460;-52
2023/07/29 15:35:28;;;;;;;1.92;1.50;;;;;;;30.70;27.86;97259.75;10255217;28;20085;-51
2023/07/29 15:40:27;;;;;;;2.28;1.70;;;;;;;30.29;27.44;97235.72;10253454;28;20117;-51
2023/07/29 15:45:26;;;;;;;2.17;1.98;;;;;;;30.42;28.20;97269.44;10255839;28;20128;-51
2023/07/29 15:50:25;;;;;;;3.50;1.98;;;;;;;30.47;29.67;97275.25;10254512;28;20030;-52
2023/07/29 15:55:24;;;;;;;6.50;2.33;;;;;;;30.63;29.59;97275.56;10254747;28;20118;-53
2023/07/29 16:00:24;;;;;;;4.43;2.08;;;;;;;30.53;29.47;97280.03;10247903;28;20555;-51
2023/07/29 16:05:23;;;;;;;3.30;2.13;;;;;;;30.28;30.22;97289.38;10253596;28;20559;-52
2023/07/29 16:10:22;;;;;;;4.15;2.25;;;;;;;29.97;30.36;97297.44;10253112;28;20472;-52
2023/07/29 16:15:21;;;;;;;2.90;2.38;;;;;;;29.79;31.09;97299.00;10237704;28;20037;-52
2023/07/29 16:20:20;;;;;;;3.80;2.17;;;;;;;29.83;31.33;97300.44;10242191;28;20130;-50
2023/07/29 16:25:19;;;;;;;4.25;2.10;;;;;;;29.82;31.01;97302.28;10253236;28;20464;-52
2023/07/29 16:30:18;;;;;;;4.63;2.30;;;;;;;29.73;30.80;97288.88;10259125;28;20491;-52
2023/07/29 16:35:17;;;;;;;2.95;2.28;;;;;;;29.83;30.66;97298.63;10262068;28;20101;-52
2023/07/29 16:40:16;;;;;;;2.55;2.13;;;;;;;29.81;30.86;97297.06;10257253;28;20096;-52
2023/07/29 16:45:16;;;;;;;3.67;2.17;;;;;;;29.84;30.99;97313.72;10262415;28;20057;-52
2023/07/29 16:50:15;;;;;;;4.90;2.58;;;;;;;29.61;31.51;97306.81;10262183;28;20061;-51
2023/07/29 16:55:14;;;;;;;4.70;2.75;;;;;;;29.64;31.98;97322.59;10260582;28;20495;-52
2023/07/29 17:00:13;;;;;;;3.85;2.45;;;;;;;29.48;32.41;97317.69;10261506;28;20062;-51
2023/07/29 17:05:12;;;;;;;2.30;2.10;;;;;;;29.29;32.42;97326.44;10261037;28;20064;-52
2023/07/29 17:10:11;;;;;;;2.83;1.80;;;;;;;29.23;32.27;97327.78;10259556;28;20121;-52
2023/07/29 17:15:10;;;;;;;2.83;2.03;;;;;;;29.11;32.64;97331.47;10262725;28;20108;-51
2023/07/29 17:20:09;;;;;;;3.45;2.25;;;;;;;29.08;33.02;97337.91;10258253;28;20514;-52
2023/07/29 17:25:08;;;;;;;3.40;2.45;;;;;;;28.92;34.24;97337.47;10261353;28;20076;-55
2023/07/29 17:30:08;;;;;;;10.43;4.07;;;;;;;28.65;34.97;97346.75;10263890;28;20480;-52
2023/07/29 17:35:07;;;;;;;10.25;5.35;;;;;;;28.44;36.39;97337.81;10261868;28;20073;-51
2023/07/29 17:40:07;;;;;;;8.80;5.00;;;;;;;28.16;36.72;97350.69;10264504;28;20066;-52
2023/07/29 17:45:06;;;;;;;9.55;4.88;;;;;;;27.83;37.62;97352.31;10250344;28;20065;-50
2023/07/29 17:50:06;;;;;;;6.35;3.67;;;;;;;27.47;38.62;97366.69;10256719;28;20533;-52
2023/07/29 17:55:05;;;;;;;5.10;3.50;;;;;;;27.10;38.87;97369.41;10261097;28;20154;-51
2023/07/29 18:00:06;;;;;;;4.43;3.00;;;;;;;26.82;39.32;97364.41;10254957;28;20073;-54
2023/07/29 18:05:05;;;;;;;12.63;6.90;;;;;;;26.54;40.07;97364.59;10253992;28;20092;-51
2023/07/29 18:10:05;;;;;;;6.47;3.40;;;;;;;26.20;41.58;97370.59;10236515;28;20058;-49
2023/07/29 18:15:05;;;;;;;9.30;3.92;;;;;;;26.00;42.17;97379.97;10286453;28;20134;-53
2023/07/29 18:20:06;;;;;;;5.47;3.53;;;;;;;25.71;42.73;97374.84;10286950;28;20144;-51
2023/07/29 18:25:05;;;;;;;7.72;4.00;;;;;;;25.47;42.98;97383.50;10288820;28;20495;-50
2023/07/29 18:30:05;;;;;;;6.25;3.13;;;;;;;25.28;43.47;97388.34;10282637;28;20068;-49
2023/07/29 18:35:04;;;;;;;4.80;3.10;;;;;;;25.07;43.93;97395.91;10284992;28;20117;-51
2023/07/29 18:40:04;;;;;;;5.45;3.30;;;;;;;24.70;45.21;97400.91;10287494;28;20479;-51
2023/07/29 18:45:03;;;;;;;7.07;3.53;;;;;;;24.66;45.20;97399.41;10283526;28;20125;-50
2023/07/29 18:50:03;;;;;;;3.65;2.72;;;;;;;24.51;45.71;97411.00;10282640;28;20121;-51
2023/07/29 18:55:02;;;;;;;5.55;2.78;;;;;;;24.36;46.16;97413.66;10281807;28;20128;-49
2023/07/29 19:00:03;;;;;;;5.03;3.10;;;;;;;24.24;47.26;97422.38;10295298;28;20205;-51
2023/07/29 19:05:04;;;;;;;5.03;3.50;;;;;;;23.95;49.35;97410.88;10282478;28;20595;-49
2023/07/29 19:10:04;;;;;;;5.55;3.10;;;;;;;23.69;50.54;97421.22;10279782;28;20503;-51
2023/07/29 19:15:03;;;;;;;6.00;3.13;;;;;;;23.49;51.45;97427.72;10281682;28;20125;-51
2023/07/29 19:20:04;;;;;;;4.47;3.25;;;;;;;23.35;51.92;97427.63;10282909;28;20212;-50
2023/07/29 19:25:03;;;;;;;5.03;3.10;;;;;;;23.22;52.71;97423.03;10283449;28;20120;-52
2023/07/29 19:30:02;;;;;;;4.50;3.40;;;;;;;23.19;53.27;97431.16;10285546;28;20073;-51
2023/07/29 19:35:01;;;;;;;4.32;3.20;;;;;;;23.05;53.45;97425.81;10285898;28;20084;-52
2023/07/29 19:40:00;;;;;;;5.20;3.35;;;;;;;22.97;54.19;97431.50;10286401;28;20451;-51
2023/07/29 19:44:59;;;;;;;8.45;3.92;;;;;;;22.76;54.19;97415.06;10285715;28;20021;-51
2023/07/29 19:49:58;;;;;;;7.53;3.78;;;;;;;22.75;55.19;97429.22;10286726;28;20390;-52
2023/07/29 19:54:57;;;;;;;8.85;4.22;;;;;;;22.72;54.96;97432.00;10285598;28;20561;-51
2023/07/29 19:59:56;;;;;;;15.18;8.10;;;;;;;22.67;54.80;97433.19;10285020;28;20488;-51
2023/07/29 20:04:55;;;;;;;12.38;6.85;;;;;;;22.56;54.25;97433.78;10292396;28;20037;-52
2023/07/29 20:09:54;;;;;;;10.32;6.10;;;;;;;22.46;54.46;97432.56;10293302;28;20434;-52
2023/07/29 20:14:54;;;;;;;6.72;4.63;;;;;;;22.37;55.03;97450.66;10293151;28;20039;-50
2023/07/29 20:19:53;;;;;;;7.57;4.28;;;;;;;22.30;56.19;97436.06;10293848;28;20065;-50
2023/07/29 20:24:52;;;;;;;7.03;4.00;;;;;;;22.24;56.39;97436.38;10292136;28;20034;-51
2023/07/29 20:29:51;;;;;;;8.10;4.38;;;;;;;22.09;57.12;97427.47;10288947;28;20104;-51
2023/07/29 20:34:53;;;;;;;6.43;4.18;;;;;;;22.06;58.70;97445.25;10289036;28;20048;-50
2023/07/29 20:39:52;;;;;;;8.82;4.55;;;;;;;21.97;59.45;97444.78;10288460;28;20072;-49
2023/07/29 20:44:51;;;;;;;6.95;3.55;;;;;;;21.88;59.92;97447.06;10289372;28;20534;-51
2023/07/29 20:49:50;;;;;;;5.53;3.55;;;;;;;21.68;60.52;97450.72;10288632;28;20044;-51
2023/07/29 20:54:50;;;;;;;5.15;3.30;;;;;;;21.44;60.87;97447.53;10285615;28;20486;-52
2023/07/29 20:59:49;;;;;;;5.65;4.13;;;;;;;21.38;61.83;97445.19;10282839;28;20581;-51
2023/07/29 21:04:48;;;;;;;4.75;3.47;;;;;;;21.28;61.79;97439.50;10286119;28;20135;-51
2023/07/29 21:09:47;;;;;;;6.78;4.30;;;;;;;21.16;62.83;97448.84;10287212;28;20053;-51
2023/07/29 21:14:46;;;;;;;6.82;4.35;;;;;;;20.94;63.41;97409.47;10282847;28;20311;-51
2023/07/29 21:19:45;;;;;;;8.25;4.60;;;;;;;21.05;63.79;97436.16;10282511;28;20472;-48
2023/07/29 21:24:44;;;;;;;6.18;4.07;;;;;;;20.90;64.38;97442.19;10284840;28;20041;-51
2023/07/29 21:29:43;;;;;;;8.63;4.60;;;;;;;20.76;65.11;97436.72;10282312;28;20520;-49
2023/07/29 21:34:43;;;;;;;6.65;4.20;;;;;;;20.67;65.34;97443.25;10285479;28;20461;-51
2023/07/29 21:39:42;;;;;;;9.82;4.93;;;;;;;20.56;66.21;97453.44;10284556;28;20581;-51
2023/07/29 21:44:41;;;;;;;6.93;3.95;;;;;;;20.37;66.90;97450.75;10284658;28;20502;-50
2023/07/29 21:49:40;;;;;;;7.65;4.32;;;;;;;20.35;67.13;97442.91;10284736;28;20053;-51
2023/07/29 21:54:39;;;;;;;4.88;4.00;;;;;;;20.16;67.56;97435.00;10285394;28;20153;-51
2023/07/29 21:59:38;;;;;;;5.18;3.88;;;;;;;20.13;68.56;97455.38;10282845;28;20037;-51
2023/07/29 22:04:37;;;;;;;6.72;4.05;;;;;;;20.07;68.42;97449.44;10283986;28;20097;-52
2023/07/29 22:09:36;;;;;;;5.65;4.28;;;;;;;19.91;69.25;97439.63;10282685;28;20118;-50
2023/07/29 22:14:35;;;;;;;7.32;4.72;;;;;;;19.79;70.00;97447.16;10283003;28;20089;-50
2023/07/29 22:19:34;;;;;;;4.85;3.97;;;;;;;19.63;70.72;97446.97;10284495;28;20455;-51
2023/07/29 22:24:33;;;;;;;6.82;4.43;;;;;;;19.57;70.62;97438.47;10285675;28;20100;-50
2023/07/29 22:29:32;;;;;;;9.05;4.50;;;;;;;19.41;70.88;97414.53;10285214;28;20054;-52
2023/07/29 22:34:31;;;;;;;5.85;3.90;;;;;;;19.51;71.60;97430.78;10285155;28;20152;-51
2023/07/29 22:39:30;;;;;;;6.50;4.40;;;;;;;19.45;71.92;97431.91;10285282;28;20049;-52
2023/07/29 22:44:29;;;;;;;7.15;4.32;;;;;;;19.40;72.11;97440.00;10284931;28;20042;-51
2023/07/29 22:49:29;;;;;;;6.43;4.20;;;;;;;19.36;72.12;97437.53;10284342;28;20128;-52
2023/07/29 22:54:28;;;;;;;7.80;4.68;;;;;;;19.30;73.03;97443.06;10285394;28;20066;-52
2023/07/29 22:59:27;;;;;;;5.80;4.38;;;;;;;19.31;73.97;97439.53;10283767;28;20028;-50
2023/07/29 23:04:26;;;;;;;5.90;4.55;;;;;;;19.09;74.60;97421.09;10284758;28;20500;-52
2023/07/29 23:09:25;;;;;;;9.27;4.32;;;;;;;19.20;74.33;97437.31;10284229;28;20052;-51
2023/07/29 23:14:25;;;;;;;5.63;4.60;;;;;;;19.17;74.80;97437.44;10283595;28;20121;-49
2023/07/29 23:19:24;;;;;;;6.10;4.80;;;;;;;19.13;74.58;97441.97;10283037;28;20053;-52